Time;durP1;ratioP1;P1;durP2;ratioP2;P2;SDS_P1;SDS_P2;PMS_P1;PMS_P2;Temp;Humidity;BMP_temperature;BMP_pressure;BME280_temperature;BME280_humidity;BME280_pressure;Samples;Min_cycle;Max_cycle;Signal;HPM_P1;HPM_P2
2022/12/26 04:20:17;;;;;;;0.40;0.40;;;13.70;52.90;;;;;;4893587;28;45199;-56
2022/12/26 04:45:41;;;;;;;0.40;0.40;;;13.70;52.90;;;;;;4901841;28;46267;-55
2022/12/26 04:50:51;;;;;;;0.30;0.30;;;13.70;52.90;;;;;;4893605;28;46566;-57
2022/12/26 04:53:17;;;;;;;0.30;0.30;;;13.70;52.90;;;;;;4900034;28;45023;-55
2022/12/26 04:55:43;;;;;;;0.30;0.30;;;13.70;52.80;;;;;;4886684;28;44818;-56
2022/12/26 04:58:09;;;;;;;0.32;0.32;;;13.70;52.80;;;;;;4903604;28;45174;-55
2022/12/26 05:00:34;;;;;;;0.35;0.35;;;13.70;52.90;;;;;;4865893;28;46571;-58
2022/12/26 05:11:16;;;;;;;0.40;0.30;;;13.70;52.80;;;;;;4886383;28;45383;-57
2022/12/26 05:13:42;;;;;;;0.30;0.30;;;13.70;52.80;;;;;;4879017;28;45316;-53
2022/12/26 05:29:51;;;;;;;0.82;0.50;;;13.70;52.80;;;;;;4902197;28;45263;-53
2022/12/26 05:35:00;;;;;;;0.82;0.40;;;13.70;52.80;;;;;;4906127;28;46371;-57
2022/12/26 05:37:26;;;;;;;0.65;0.50;;;13.70;52.80;;;;;;4925383;28;45211;-55
2022/12/26 05:39:51;;;;;;;0.30;0.30;;;13.70;52.80;;;;;;4901742;28;44806;-52
2022/12/26 05:42:17;;;;;;;0.40;0.40;;;13.70;52.80;;;;;;4902086;28;45582;-52
2022/12/26 05:44:43;;;;;;;0.30;0.30;;;13.70;52.80;;;;;;4905026;28;45349;-56
2022/12/26 05:47:09;;;;;;;0.20;0.20;;;13.70;52.80;;;;;;4905820;28;44793;-53
2022/12/26 05:49:34;;;;;;;0.20;0.17;;;13.70;52.80;;;;;;4901674;28;45224;-54
2022/12/26 05:52:00;;;;;;;0.40;0.40;;;13.70;52.80;;;;;;4903495;28;45514;-51
2022/12/26 05:54:25;;;;;;;0.30;0.30;;;13.70;52.80;;;;;;4906785;28;44874;-63
2022/12/26 05:56:52;;;;;;;0.40;0.40;;;13.70;52.70;;;;;;4905072;28;45209;-53
2022/12/26 05:59:17;;;;;;;0.20;0.20;;;13.70;52.70;;;;;;4899392;28;44787;-53
2022/12/26 06:01:43;;;;;;;0.38;0.30;;;13.70;52.80;;;;;;4899261;28;45279;-53
2022/12/26 06:04:09;;;;;;;0.30;0.30;;;13.70;52.80;;;;;;4904293;28;45302;-55
2022/12/26 06:06:34;;;;;;;0.40;0.30;;;13.70;52.80;;;;;;4909374;28;45277;-55
2022/12/26 06:09:00;;;;;;;0.35;0.35;;;13.70;52.80;;;;;;4897199;28;45393;-61
2022/12/26 06:11:26;;;;;;;0.30;0.30;;;13.70;52.80;;;;;;4900250;28;46687;-58
2022/12/26 06:13:51;;;;;;;0.22;0.22;;;13.70;52.70;;;;;;4923519;28;45266;-55
2022/12/26 06:16:17;;;;;;;0.52;0.32;;;13.70;52.70;;;;;;4902835;28;45277;-53
2022/12/26 06:18:43;;;;;;;0.50;0.30;;;13.70;52.80;;;;;;4901940;28;45995;-53
2022/12/26 06:21:10;;;;;;;0.75;0.40;;;13.70;52.80;;;;;;4898077;28;46062;-56
2022/12/26 06:23:36;;;;;;;0.20;0.20;;;13.70;52.80;;;;;;4898709;28;45425;-57
2022/12/26 06:26:02;;;;;;;0.38;0.38;;;13.70;52.80;;;;;;4905716;28;45464;-54
2022/12/26 06:28:28;;;;;;;0.30;0.30;;;13.70;52.70;;;;;;4900311;28;45306;-58
2022/12/26 06:30:56;;;;;;;0.20;0.20;;;13.70;52.70;;;;;;4904320;28;45409;-56
2022/12/26 06:33:21;;;;;;;0.38;0.38;;;13.70;52.80;;;;;;4900500;28;45192;-53
2022/12/26 06:35:47;;;;;;;0.30;0.30;;;13.70;52.80;;;;;;4903783;28;45396;-52
2022/12/26 06:38:12;;;;;;;0.50;0.30;;;13.70;53.30;;;;;;4904353;28;45160;-59
2022/12/26 06:40:39;;;;;;;0.38;0.38;;;13.70;52.70;;;;;;4899521;28;46889;-56
2022/12/26 06:43:05;;;;;;;0.50;0.40;;;13.70;52.70;;;;;;4904804;28;45262;-53
2022/12/26 06:45:30;;;;;;;0.40;0.30;;;13.70;52.70;;;;;;4897809;28;45213;-56
2022/12/26 06:47:58;;;;;;;0.40;0.40;;;13.70;52.70;;;;;;4902411;28;46466;-53
2022/12/26 06:50:23;;;;;;;0.40;0.40;;;13.70;52.80;;;;;;4923173;28;46911;-57
2022/12/26 06:52:49;;;;;;;0.30;0.30;;;13.70;52.70;;;;;;4884863;28;45340;-58
2022/12/26 06:55:14;;;;;;;0.30;0.30;;;13.70;52.80;;;;;;4903230;28;45323;-53
2022/12/26 06:57:40;;;;;;;0.30;0.20;;;13.70;52.70;;;;;;4902771;28;46167;-54
2022/12/26 07:00:06;;;;;;;0.20;0.20;;;13.70;52.70;;;;;;4901344;28;46183;-54
2022/12/26 07:02:31;;;;;;;0.20;0.20;;;13.70;52.70;;;;;;4902791;28;45891;-52
2022/12/26 07:04:57;;;;;;;0.30;0.30;;;13.70;52.70;;;;;;4904885;28;44765;-53
2022/12/26 07:07:22;;;;;;;0.20;0.20;;;13.70;52.70;;;;;;4905500;28;45458;-56
2022/12/26 07:09:48;;;;;;;0.65;0.40;;;13.70;52.70;;;;;;4902175;28;46055;-58
2022/12/26 07:12:13;;;;;;;0.28;0.28;;;13.70;52.70;;;;;;4901428;28;46046;-53
2022/12/26 07:14:39;;;;;;;0.20;0.20;;;13.70;52.70;;;;;;4903858;28;45548;-54
2022/12/26 07:17:05;;;;;;;0.40;0.40;;;13.70;52.70;;;;;;4902388;28;44679;-57
2022/12/26 07:19:30;;;;;;;0.30;0.30;;;13.70;52.70;;;;;;4902656;28;45594;-55
2022/12/26 07:21:56;;;;;;;0.35;0.35;;;13.70;52.70;;;;;;4902838;28;46415;-55
2022/12/26 07:24:21;;;;;;;0.40;0.40;;;13.70;52.70;;;;;;4885657;28;45524;-60
2022/12/26 07:26:47;;;;;;;0.30;0.30;;;13.70;52.70;;;;;;4902009;28;44794;-53
2022/12/26 07:29:13;;;;;;;0.38;0.38;;;13.70;52.70;;;;;;4900082;28;45301;-53
2022/12/26 07:31:38;;;;;;;0.22;0.22;;;13.70;52.70;;;;;;4901433;28;45315;-53
2022/12/26 07:34:04;;;;;;;0.40;0.40;;;13.70;52.70;;;;;;4902333;28;45228;-53
2022/12/26 07:36:29;;;;;;;0.63;0.35;;;13.70;52.70;;;;;;4908989;28;44761;-59
2022/12/26 07:38:55;;;;;;;0.40;0.40;;;13.70;52.70;;;;;;4906784;28;46441;-55
2022/12/26 07:44:05;;;;;;;0.50;0.50;;;13.70;52.70;;;;;;4902152;28;46501;-55
2022/12/26 07:46:30;;;;;;;0.43;0.38;;;13.70;52.70;;;;;;4905576;28;45443;-54
2022/12/26 07:48:56;;;;;;;0.30;0.30;;;13.70;52.70;;;;;;4904431;28;46440;-54
2022/12/26 07:51:22;;;;;;;0.20;0.20;;;13.70;52.70;;;;;;4905578;28;45224;-54
2022/12/26 07:53:47;;;;;;;0.30;0.30;;;13.70;52.70;;;;;;4908712;28;45560;-54
2022/12/26 07:56:13;;;;;;;0.45;0.45;;;13.70;52.70;;;;;;4907415;28;45294;-51
2022/12/26 07:58:38;;;;;;;0.30;0.30;;;13.70;52.70;;;;;;4902796;28;46084;-56
2022/12/26 08:01:05;;;;;;;0.50;0.40;;;13.70;52.70;;;;;;4904527;28;45307;-55
2022/12/26 08:03:31;;;;;;;0.63;0.32;;;13.70;52.70;;;;;;4904234;28;45276;-56
2022/12/26 08:05:57;;;;;;;0.40;0.40;;;13.70;52.70;;;;;;4901870;28;44769;-55
2022/12/26 08:08:22;;;;;;;0.40;0.40;;;13.70;52.70;;;;;;4886796;28;45763;-54
2022/12/26 08:10:48;;;;;;;0.30;0.30;;;13.70;52.70;;;;;;4905953;28;45224;-52
2022/12/26 08:13:13;;;;;;;0.28;0.28;;;13.80;52.80;;;;;;4907683;28;45204;-54
2022/12/26 08:15:39;;;;;;;0.40;0.30;;;13.70;52.70;;;;;;4901577;28;44781;-56
2022/12/26 08:18:05;;;;;;;0.28;0.28;;;13.70;52.70;;;;;;4904018;28;45559;-55
2022/12/26 08:20:31;;;;;;;0.40;0.30;;;13.70;52.70;;;;;;4902384;28;45263;-56
2022/12/26 08:22:56;;;;;;;0.25;0.25;;;13.80;52.70;;;;;;4903963;28;45357;-55
2022/12/26 08:25:22;;;;;;;0.30;0.20;;;13.70;52.70;;;;;;4905085;28;45311;-53
2022/12/26 08:27:47;;;;;;;0.20;0.20;;;13.70;52.70;;;;;;4902549;28;46116;-53
2022/12/26 08:30:13;;;;;;;0.40;0.40;;;13.70;52.70;;;;;;4901699;28;45523;-55
2022/12/26 08:32:38;;;;;;;0.30;0.30;;;13.70;52.70;;;;;;4900435;28;45437;-53
2022/12/26 08:35:04;;;;;;;0.40;0.40;;;13.70;52.70;;;;;;4902509;28;45156;-56
2022/12/26 08:37:30;;;;;;;0.30;0.30;;;13.70;52.70;;;;;;4903931;28;46781;-56
2022/12/26 08:39:55;;;;;;;0.47;0.40;;;13.70;52.70;;;;;;4908272;28;45445;-54
2022/12/26 08:42:21;;;;;;;0.43;0.40;;;13.70;52.70;;;;;;4906631;28;44786;-59
2022/12/26 08:44:47;;;;;;;0.22;0.22;;;13.70;52.70;;;;;;4898364;28;44994;-60
2022/12/26 08:47:13;;;;;;;0.20;0.20;;;13.70;52.70;;;;;;4904566;28;45511;-53
2022/12/26 08:49:38;;;;;;;0.30;0.30;;;13.70;52.70;;;;;;4903461;28;45796;-59
2022/12/26 08:52:04;;;;;;;0.30;0.30;;;13.80;52.70;;;;;;4891611;28;44732;-58
2022/12/26 08:54:29;;;;;;;0.30;0.20;;;13.70;52.70;;;;;;4904519;28;45930;-53
2022/12/26 08:56:55;;;;;;;0.40;0.40;;;13.70;52.60;;;;;;4904623;28;45257;-56
2022/12/26 08:59:20;;;;;;;0.30;0.30;;;13.70;52.70;;;;;;4906012;28;45193;-55
2022/12/26 09:01:46;;;;;;;0.30;0.30;;;13.70;52.70;;;;;;4900313;28;45318;-53
2022/12/26 09:04:11;;;;;;;0.22;0.20;;;13.70;52.60;;;;;;4909625;28;45517;-57
2022/12/26 09:06:37;;;;;;;0.30;0.30;;;13.70;52.70;;;;;;4907521;28;45541;-58
2022/12/26 09:09:03;;;;;;;0.30;0.22;;;13.80;52.60;;;;;;4901016;28;44994;-54
2022/12/26 09:11:29;;;;;;;0.30;0.30;;;13.80;52.50;;;;;;4889248;28;44779;-57
2022/12/26 09:13:56;;;;;;;0.77;0.40;;;13.80;52.50;;;;;;4907517;28;45892;-55
2022/12/26 09:16:24;;;;;;;0.32;0.32;;;13.90;52.50;;;;;;4905970;28;45435;-54
2022/12/26 09:18:53;;;;;;;0.30;0.30;;;14.00;52.30;;;;;;4904255;28;45710;-56
2022/12/26 09:21:19;;;;;;;0.20;0.20;;;14.20;52.10;;;;;;4901857;28;45212;-52
2022/12/26 09:23:44;;;;;;;0.30;0.30;;;14.40;52.00;;;;;;4903380;28;45367;-54
2022/12/26 09:26:12;;;;;;;0.10;0.10;;;14.50;51.70;;;;;;4902724;28;45723;-53
2022/12/26 09:28:38;;;;;;;0.30;0.30;;;14.70;51.50;;;;;;4881596;28;45636;-55
2022/12/26 09:31:05;;;;;;;0.15;0.15;;;14.80;51.30;;;;;;4922155;28;45316;-54
2022/12/26 09:33:32;;;;;;;0.20;0.20;;;15.10;51.20;;;;;;4904242;28;45485;-57
2022/12/26 09:35:58;;;;;;;0.40;0.40;;;15.20;50.90;;;;;;4898591;28;45390;-55
2022/12/26 09:38:23;;;;;;;0.20;0.20;;;15.40;50.80;;;;;;4908743;28;47082;-53
2022/12/26 09:41:11;;;;;;;0.20;0.20;;;15.60;50.70;;;;;;4900071;28;45523;-56
2022/12/26 09:44:02;;;;;;;0.63;0.40;;;15.70;50.50;;;;;;4900988;28;45516;-57
2022/12/26 09:46:33;;;;;;;0.20;0.20;;;15.90;50.30;;;;;;4899990;28;45274;-53
2022/12/26 09:49:33;;;;;;;0.52;0.30;;;16.10;50.20;;;;;;4885483;28;45289;-55
2022/12/26 09:52:01;;;;;;;0.20;0.20;;;16.20;50.00;;;;;;4897693;28;45375;-54
2022/12/26 09:54:30;;;;;;;0.30;0.30;;;16.40;50.00;;;;;;4904622;28;46319;-55
2022/12/26 09:56:56;;;;;;;0.20;0.17;;;16.50;49.80;;;;;;4901778;28;45992;-54
2022/12/26 09:59:23;;;;;;;0.30;0.20;;;16.70;49.70;;;;;;4903006;28;45310;-56
2022/12/26 10:01:49;;;;;;;0.28;0.25;;;16.90;49.60;;;;;;4885841;28;45180;-57
2022/12/26 10:04:20;;;;;;;0.20;0.20;;;17.00;50.00;;;;;;4886670;28;45376;-52
2022/12/26 10:06:49;;;;;;;0.10;0.10;;;17.20;49.20;;;;;;4902475;28;45422;-52
2022/12/26 10:09:42;;;;;;;0.30;0.20;;;17.30;49.20;;;;;;4868835;28;45260;-52
2022/12/26 10:12:14;;;;;;;0.20;0.20;;;17.50;48.80;;;;;;4921096;28;45312;-57
2022/12/26 10:14:52;;;;;;;0.10;0.10;;;17.60;48.80;;;;;;4903849;28;45023;-52
2022/12/26 10:17:41;;;;;;;0.20;0.20;;;17.70;48.90;;;;;;4901829;28;45707;-56
2022/12/26 10:20:12;;;;;;;0.85;0.28;;;17.90;48.60;;;;;;4901489;28;44829;-54
2022/12/26 10:23:10;;;;;;;0.40;0.40;;;18.10;48.60;;;;;;4902432;28;46245;-54
2022/12/26 10:25:42;;;;;;;0.20;0.17;;;18.20;48.10;;;;;;4875463;28;45071;-57
2022/12/26 10:28:16;;;;;;;0.20;0.20;;;18.30;48.40;;;;;;4905134;28;45142;-58
2022/12/26 10:30:42;;;;;;;0.20;0.20;;;18.50;48.30;;;;;;4887166;28;45014;-54
2022/12/26 10:33:16;;;;;;;0.28;0.20;;;18.70;48.20;;;;;;4897960;28;44987;-56
2022/12/26 10:35:43;;;;;;;0.20;0.13;;;18.80;48.00;;;;;;4900769;28;45165;-51
2022/12/26 10:38:33;;;;;;;0.30;0.20;;;18.90;48.00;;;;;;4885635;28;45431;-56
2022/12/26 10:41:22;;;;;;;0.25;0.20;;;19.10;47.40;;;;;;4901813;28;45260;-56
2022/12/26 10:43:47;;;;;;;0.20;0.20;;;19.30;47.30;;;;;;4898160;28;44903;-56
2022/12/26 10:46:22;;;;;;;0.20;0.20;;;19.30;47.70;;;;;;4903345;28;45276;-53
2022/12/26 10:48:48;;;;;;;0.50;0.20;;;19.50;47.50;;;;;;4902641;28;46724;-57
2022/12/26 10:51:14;;;;;;;0.20;0.20;;;19.60;47.60;;;;;;4905647;28;45535;-55
2022/12/26 10:53:42;;;;;;;0.10;0.10;;;19.60;47.60;;;;;;4887554;28;45194;-55
2022/12/26 10:56:07;;;;;;;0.20;0.20;;;19.70;47.60;;;;;;4900888;28;46051;-58
2022/12/26 10:58:34;;;;;;;0.20;0.20;;;19.70;47.50;;;;;;4905453;28;47251;-55
2022/12/26 11:01:27;;;;;;;0.43;0.10;;;19.80;47.50;;;;;;4899722;28;45026;-54
2022/12/26 11:03:53;;;;;;;;;;;19.90;47.10;;;;;;4902826;28;45404;-53
2022/12/26 11:06:19;;;;;;;0.20;0.20;;;20.00;46.90;;;;;;4906470;28;45295;-58
2022/12/26 11:08:51;;;;;;;0.10;0.10;;;20.00;47.40;;;;;;4885615;28;46379;-59
2022/12/26 11:11:23;;;;;;;0.17;0.17;;;20.10;47.20;;;;;;4888229;28;45548;-54
2022/12/26 11:13:53;;;;;;;0.30;0.30;;;20.20;47.30;;;;;;4904447;28;45094;-55
2022/12/26 11:16:25;;;;;;;0.20;0.20;;;20.30;47.20;;;;;;4901275;28;45628;-54
2022/12/26 11:18:51;;;;;;;0.20;0.20;;;20.30;47.10;;;;;;4889151;28;46265;-53
2022/12/26 11:21:17;;;;;;;0.30;0.30;;;20.40;47.20;;;;;;4901934;28;45656;-52
2022/12/26 11:23:43;;;;;;;0.10;0.10;;;20.50;47.20;;;;;;4904404;28;45508;-55
2022/12/26 11:26:23;;;;;;;0.20;0.20;;;20.50;47.10;;;;;;4905420;28;45690;-58
2022/12/26 11:29:10;;;;;;;0.20;0.10;;;20.60;46.70;;;;;;4903959;28;45711;-56
2022/12/26 11:31:37;;;;;;;0.15;0.15;;;20.70;46.60;;;;;;4901914;28;45659;-58
2022/12/26 11:34:10;;;;;;;0.20;0.20;;;20.70;46.90;;;;;;4905469;28;45695;-58
2022/12/26 11:36:36;;;;;;;0.20;0.20;;;20.80;46.70;;;;;;4903564;28;45524;-59
2022/12/26 11:39:18;;;;;;;0.13;0.10;;;20.90;46.80;;;;;;4907516;28;45344;-56
2022/12/26 11:41:47;;;;;;;0.13;0.13;;;21.00;46.50;;;;;;4904221;28;45101;-56
2022/12/26 11:44:13;;;;;;;0.20;0.20;;;21.00;46.80;;;;;;4901255;28;45253;-51
2022/12/26 11:46:58;;;;;;;0.28;0.28;;;21.10;46.80;;;;;;4910675;28;45149;-54
2022/12/26 11:49:34;;;;;;;0.10;0.10;;;21.10;46.70;;;;;;4906759;28;45392;-53
2022/12/26 11:52:28;;;;;;;0.20;0.10;;;21.20;46.40;;;;;;4904029;28;45629;-54
2022/12/26 11:54:53;;;;;;;0.15;0.15;;;21.30;46.20;;;;;;4902974;28;45290;-55
2022/12/26 11:57:27;;;;;;;0.10;0.10;;;21.40;46.60;;;;;;4907693;28;45190;-52
2022/12/26 11:59:53;;;;;;;0.20;0.20;;;21.40;46.40;;;;;;4903170;28;45936;-54
2022/12/26 12:02:27;;;;;;;0.10;0.10;;;21.50;46.50;;;;;;4887215;28;44854;-59
2022/12/26 12:04:56;;;;;;;0.25;0.20;;;21.50;46.30;;;;;;4901737;28;45223;-56
2022/12/26 12:07:43;;;;;;;0.17;0.17;;;21.60;46.40;;;;;;4887068;28;45311;-55
2022/12/26 12:10:35;;;;;;;0.13;0.13;;;21.60;46.20;;;;;;4909416;28;45559;-55
2022/12/26 12:13:16;;;;;;;0.20;0.20;;;21.70;45.90;;;;;;4902920;28;45426;-55
2022/12/26 12:15:56;;;;;;;0.20;0.20;;;21.80;46.10;;;;;;4902712;28;45357;-55
2022/12/26 12:18:36;;;;;;;0.10;0.10;;;21.80;46.20;;;;;;4889182;28;45393;-59
2022/12/26 12:21:31;;;;;;;0.20;0.20;;;21.90;46.20;;;;;;4906393;28;45209;-57
2022/12/26 12:24:14;;;;;;;0.20;0.10;;;21.90;45.90;;;;;;4908134;28;45396;-53
2022/12/26 12:27:00;;;;;;;0.13;0.13;;;22.00;46.10;;;;;;4908846;28;45649;-53
2022/12/26 12:29:34;;;;;;;0.30;0.30;;;22.10;45.80;;;;;;4890719;28;45357;-58
2022/12/26 12:32:38;;;;;;;0.20;0.10;;;22.10;45.90;;;;;;4902696;28;48104;-56
2022/12/26 12:35:19;;;;;;;0.20;0.20;;;22.20;45.50;;;;;;4903488;28;45265;-55
2022/12/26 12:37:57;;;;;;;0.20;0.20;;;22.20;45.90;;;;;;4909186;28;45367;-55
2022/12/26 12:40:54;;;;;;;0.10;0.10;;;22.30;46.00;;;;;;4906591;28;45005;-57
2022/12/26 12:43:42;;;;;;;0.20;0.20;;;22.30;45.50;;;;;;4907255;28;46699;-55
2022/12/26 12:46:34;;;;;;;0.20;0.20;;;22.40;45.40;;;;;;4906004;28;45317;-54
2022/12/26 12:49:31;;;;;;;0.28;0.10;;;22.40;45.30;;;;;;4899248;28;45252;-55
2022/12/26 12:52:18;;;;;;;0.13;0.03;;;22.50;45.60;;;;;;4884133;28;45157;-54
2022/12/26 12:54:56;;;;;;;0.20;0.10;;;22.60;45.60;;;;;;4905965;28;45294;-54
2022/12/26 12:57:37;;;;;;;0.35;0.20;;;22.60;45.70;;;;;;4904116;28;45256;-54
2022/12/26 13:00:18;;;;;;;0.20;0.20;;;22.70;45.60;;;;;;4925746;28;45678;-56
2022/12/26 13:02:51;;;;;;;0.20;0.20;;;22.70;45.30;;;;;;4903815;28;46205;-52
2022/12/26 13:05:46;;;;;;;0.10;0.10;;;22.80;45.50;;;;;;4904189;28;45458;-58
2022/12/26 13:08:23;;;;;;;0.20;0.20;;;22.80;45.20;;;;;;4904112;28;45465;-54
2022/12/26 13:10:56;;;;;;;0.20;0.20;;;22.90;45.40;;;;;;4903555;28;45237;-57
2022/12/26 13:13:34;;;;;;;0.08;0.08;;;22.90;45.40;;;;;;4891919;28;45254;-54
2022/12/26 13:16:14;;;;;;;0.50;0.25;;;23.00;45.30;;;;;;4885193;28;45398;-58
2022/12/26 13:18:47;;;;;;;0.20;0.20;;;23.00;45.10;;;;;;4894340;28;45885;-56
2022/12/26 13:21:12;;;;;;;0.20;0.20;;;23.00;45.30;;;;;;4887939;28;45246;-59
2022/12/26 13:27:04;;;;;;;0.20;0.15;;;23.00;45.20;;;;;;4894811;28;46393;-55
2022/12/26 13:29:30;;;;;;;0.20;0.20;;;23.00;44.90;;;;;;4889830;28;45766;-53
2022/12/26 13:31:57;;;;;;;0.20;0.20;;;22.90;45.30;;;;;;4902297;23;45189;-57
2022/12/26 13:34:22;;;;;;;0.20;0.20;;;22.80;45.30;;;;;;4876836;29;44936;-55
2022/12/26 13:36:49;;;;;;;0.20;0.15;;;22.70;45.50;;;;;;4875254;29;46267;-51
2022/12/26 13:39:24;;;;;;;0.20;0.20;;;22.60;45.60;;;;;;4874973;29;45190;-54
2022/12/26 13:44:37;;;;;;;0.35;0.22;;;22.40;45.90;;;;;;4873975;29;45417;-55
2022/12/26 13:47:03;;;;;;;0.45;0.30;;;22.30;46.00;;;;;;4869211;29;45548;-57
2022/12/26 13:49:39;;;;;;;0.20;0.20;;;22.30;46.20;;;;;;4872079;29;45376;-57
2022/12/26 13:52:10;;;;;;;0.30;0.20;;;22.20;46.10;;;;;;4890701;28;45683;-53
2022/12/26 13:54:57;;;;;;;0.47;0.20;;;22.10;46.30;;;;;;4877153;29;45036;-54
2022/12/26 13:57:40;;;;;;;0.30;0.30;;;22.00;46.50;;;;;;4873255;29;46621;-59
2022/12/26 14:00:07;;;;;;;;;;;21.90;46.40;;;;;;4874411;29;45294;-54
2022/12/26 14:02:51;;;;;;;0.20;0.20;;;21.80;46.50;;;;;;4872300;29;45463;-52
2022/12/26 14:05:29;;;;;;;0.20;0.20;;;21.80;46.80;;;;;;4891169;28;45585;-52
2022/12/26 14:08:43;;;;;;;0.10;0.10;;;21.70;46.90;;;;;;4868708;29;45814;-60
2022/12/26 14:11:36;;;;;;;0.38;0.20;;;21.60;46.90;;;;;;4873892;29;45368;-56
2022/12/26 14:14:36;;;;;;;0.30;0.20;;;21.60;47.10;;;;;;4874843;29;45294;-57
2022/12/26 14:17:36;;;;;;;0.20;0.20;;;21.40;47.20;;;;;;4877580;28;45474;-54
2022/12/26 14:20:44;;;;;;;0.20;0.13;;;21.40;47.30;;;;;;4873747;29;46647;-57
2022/12/26 14:23:33;;;;;;;0.10;0.10;;;21.30;47.40;;;;;;4833545;29;44953;-55
2022/12/26 14:26:18;;;;;;;0.30;0.20;;;21.20;47.50;;;;;;4849411;29;45192;-54
2022/12/26 14:29:05;;;;;;;0.20;0.20;;;21.20;47.60;;;;;;4861836;29;45439;-56
2022/12/26 14:31:42;;;;;;;0.57;0.20;;;21.10;47.70;;;;;;4876469;29;46248;-55
2022/12/26 14:34:30;;;;;;;0.20;0.20;;;21.00;47.70;;;;;;4873109;29;44720;-52
2022/12/26 14:37:21;;;;;;;0.47;0.20;;;21.00;47.90;;;;;;4869359;29;45370;-57
2022/12/26 14:39:59;;;;;;;0.15;0.15;;;20.90;48.00;;;;;;4886929;28;45197;-55
2022/12/26 14:45:41;;;;;;;0.20;0.20;;;20.80;48.10;;;;;;4871221;29;46090;-56
2022/12/26 14:48:15;;;;;;;0.20;0.20;;;20.70;48.20;;;;;;4869254;29;45422;-54
2022/12/26 14:50:45;;;;;;;0.20;0.20;;;20.70;48.30;;;;;;4875145;29;45431;-51
2022/12/26 14:53:28;;;;;;;0.20;0.20;;;20.60;48.30;;;;;;4864952;29;46209;-56
2022/12/26 14:56:09;;;;;;;0.28;0.20;;;20.60;48.50;;;;;;4875267;29;45261;-54
2022/12/26 14:58:45;;;;;;;0.20;0.20;;;20.50;48.50;;;;;;4875418;29;45373;-52
2022/12/26 15:03:59;;;;;;;0.32;0.30;;;20.40;48.60;;;;;;4873961;29;45355;-51
2022/12/26 15:06:29;;;;;;;0.20;0.20;;;20.40;48.80;;;;;;4871756;29;45207;-51
2022/12/26 15:09:08;;;;;;;0.10;0.10;;;20.30;48.80;;;;;;4872265;29;44965;-54
2022/12/26 15:11:55;;;;;;;0.10;0.10;;;20.20;48.90;;;;;;4868798;29;45598;-53
2022/12/26 15:14:38;;;;;;;0.20;0.20;;;20.20;49.00;;;;;;4877431;29;45320;-55
2022/12/26 15:17:16;;;;;;;;;;;20.20;49.00;;;;;;4869053;29;45529;-54
2022/12/26 15:20:08;;;;;;;0.20;0.20;;;20.10;49.30;;;;;;4874914;29;45346;-52
2022/12/26 15:22:41;;;;;;;0.70;0.20;;;20.00;49.20;;;;;;4872656;29;46131;-53
2022/12/26 15:25:28;;;;;;;0.30;0.22;;;20.00;49.20;;;;;;4871355;29;45614;-52
2022/12/26 15:27:58;;;;;;;0.20;0.20;;;20.00;49.30;;;;;;4859519;29;45228;-53
2022/12/26 15:30:50;;;;;;;0.25;0.25;;;19.90;49.30;;;;;;4886001;28;44789;-56
2022/12/26 15:33:24;;;;;;;0.25;0.20;;;19.90;49.60;;;;;;4857291;29;45260;-58
2022/12/26 15:35:57;;;;;;;0.30;0.30;;;19.80;49.50;;;;;;4873144;29;46149;-55
2022/12/26 15:38:43;;;;;;;0.20;0.20;;;19.70;49.50;;;;;;4852537;29;45311;-56
2022/12/26 15:41:16;;;;;;;0.20;0.20;;;19.70;49.70;;;;;;4872761;29;44766;-56
2022/12/26 15:43:51;;;;;;;0.30;0.30;;;19.70;49.70;;;;;;4860672;29;45282;-58
2022/12/26 15:46:22;;;;;;;0.40;0.30;;;19.60;49.70;;;;;;4870026;29;47043;-55
2022/12/26 15:49:00;;;;;;;0.50;0.30;;;19.60;49.80;;;;;;4854367;29;45168;-54
2022/12/26 15:51:46;;;;;;;0.38;0.30;;;19.60;49.90;;;;;;4860024;29;45494;-57
2022/12/26 15:54:11;;;;;;;0.10;0.10;;;19.50;50.00;;;;;;4870253;29;45030;-56
2022/12/26 15:56:58;;;;;;;0.13;0.13;;;19.40;49.80;;;;;;4882978;28;45773;-59
2022/12/26 15:59:39;;;;;;;0.20;0.20;;;19.40;50.00;;;;;;4887363;28;45306;-56
2022/12/26 16:02:12;;;;;;;0.17;0.13;;;19.40;50.00;;;;;;4868051;29;45283;-61
2022/12/26 16:04:45;;;;;;;0.32;0.30;;;19.40;50.10;;;;;;4873552;29;45199;-54
2022/12/26 16:07:30;;;;;;;0.50;0.22;;;19.30;50.10;;;;;;4875135;29;45614;-54
2022/12/26 16:09:57;;;;;;;0.20;0.20;;;19.30;50.10;;;;;;4874605;29;45074;-54
2022/12/26 16:12:30;;;;;;;0.10;0.10;;;19.30;50.10;;;;;;4860741;29;45584;-56
2022/12/26 16:15:23;;;;;;;0.50;0.22;;;19.20;50.70;;;;;;4872829;29;45221;-58
2022/12/26 16:17:49;;;;;;;0.20;0.20;;;19.20;50.30;;;;;;4870712;29;45611;-53
2022/12/26 16:23:20;;;;;;;0.20;0.20;;;19.10;50.30;;;;;;4870824;29;44929;-58
2022/12/26 16:25:47;;;;;;;0.30;0.30;;;19.10;50.20;;;;;;4871147;29;45315;-52
2022/12/26 16:28:12;;;;;;;0.15;0.15;;;19.10;50.20;;;;;;4851590;29;46273;-60
2022/12/26 16:30:38;;;;;;;0.10;0.10;;;19.00;50.20;;;;;;4871709;29;45263;-52
2022/12/26 16:33:04;;;;;;;0.30;0.30;;;19.00;50.30;;;;;;4872792;29;45241;-56
2022/12/26 16:35:37;;;;;;;0.20;0.20;;;19.00;50.30;;;;;;4871349;29;45288;-58
2022/12/26 16:38:05;;;;;;;0.20;0.20;;;18.90;50.40;;;;;;4869404;29;46109;-53
2022/12/26 16:40:33;;;;;;;0.22;0.20;;;18.90;50.40;;;;;;4858698;29;45946;-57
2022/12/26 16:43:06;;;;;;;0.30;0.20;;;18.90;50.40;;;;;;4875230;29;45627;-60
2022/12/26 16:45:34;;;;;;;0.30;0.30;;;18.90;50.50;;;;;;4848200;29;45161;-55
2022/12/26 16:47:59;;;;;;;0.20;0.20;;;18.80;50.40;;;;;;4864125;29;45579;-54
2022/12/26 16:50:27;;;;;;;0.30;0.22;;;18.80;50.50;;;;;;4860153;29;45332;-52
2022/12/26 16:53:10;;;;;;;0.20;0.20;;;18.70;50.50;;;;;;4874793;29;45539;-58
2022/12/26 16:55:43;;;;;;;0.20;0.20;;;18.70;50.60;;;;;;4868886;29;45599;-59
2022/12/26 16:58:18;;;;;;;0.30;0.30;;;18.70;50.60;;;;;;4873841;29;46503;-52
2022/12/26 17:01:08;;;;;;;0.15;0.15;;;18.70;50.70;;;;;;4853437;29;45237;-57
2022/12/26 17:03:49;;;;;;;0.32;0.25;;;18.70;50.70;;;;;;4868174;29;44794;-56
2022/12/26 17:06:23;;;;;;;0.20;0.20;;;18.60;50.70;;;;;;4873757;29;45368;-56
2022/12/26 17:08:49;;;;;;;0.20;0.20;;;18.60;50.70;;;;;;4869622;29;47435;-53
2022/12/26 17:11:15;;;;;;;0.40;0.40;;;18.50;50.70;;;;;;4874132;29;45473;-52
2022/12/26 17:13:51;;;;;;;0.30;0.20;;;18.50;50.70;;;;;;4871670;29;45262;-58
2022/12/26 17:16:17;;;;;;;0.20;0.20;;;18.50;50.80;;;;;;4856280;29;45878;-54
2022/12/26 17:18:53;;;;;;;0.20;0.20;;;18.50;50.80;;;;;;4870601;29;46823;-53
2022/12/26 17:21:28;;;;;;;0.22;0.22;;;18.40;50.80;;;;;;4853924;29;45469;-56
2022/12/26 17:24:14;;;;;;;0.13;0.13;;;18.40;50.80;;;;;;4874633;29;45331;-56
2022/12/26 17:26:41;;;;;;;0.10;0.10;;;18.40;50.80;;;;;;4867443;29;45484;-57
2022/12/26 17:29:33;;;;;;;0.30;0.20;;;18.40;50.80;;;;;;4866982;29;45429;-54
2022/12/26 17:31:59;;;;;;;0.20;0.20;;;18.40;50.90;;;;;;4869406;29;45736;-58
2022/12/26 17:34:25;;;;;;;0.30;0.20;;;18.30;50.80;;;;;;4872014;29;45354;-57
2022/12/26 17:36:51;;;;;;;0.30;0.30;;;18.30;50.90;;;;;;4853740;29;45162;-56
2022/12/26 17:39:21;;;;;;;0.40;0.40;;;18.30;51.50;;;;;;4853448;29;46375;-56
2022/12/26 17:41:52;;;;;;;0.40;0.40;;;18.30;51.00;;;;;;4851348;29;45216;-51
2022/12/26 17:44:40;;;;;;;0.20;0.20;;;18.20;50.90;;;;;;4872286;29;44861;-56
2022/12/26 17:47:23;;;;;;;0.45;0.40;;;18.20;51.00;;;;;;4883357;28;46841;-56
2022/12/26 17:49:50;;;;;;;0.30;0.30;;;18.20;51.10;;;;;;4873596;29;46029;-53
2022/12/26 17:52:16;;;;;;;0.20;0.20;;;18.10;51.00;;;;;;4870388;29;45709;-58
2022/12/26 17:54:42;;;;;;;0.30;0.30;;;18.10;51.00;;;;;;4873608;29;45669;-57
2022/12/26 17:57:23;;;;;;;0.20;0.20;;;18.10;51.00;;;;;;4871636;29;45319;-55
2022/12/26 17:59:49;;;;;;;0.25;0.20;;;18.10;51.10;;;;;;4875385;29;46621;-54
2022/12/26 18:02:15;;;;;;;0.25;0.25;;;18.10;51.00;;;;;;4866628;29;45111;-55
2022/12/26 18:04:40;;;;;;;0.22;0.20;;;18.10;51.10;;;;;;4873787;29;45417;-58
2022/12/26 18:07:07;;;;;;;0.20;0.20;;;18.00;51.60;;;;;;4876362;29;46026;-64
2022/12/26 18:09:33;;;;;;;0.38;0.30;;;18.10;51.10;;;;;;4859451;29;47493;-54
2022/12/26 18:11:59;;;;;;;0.10;0.10;;;18.00;51.00;;;;;;4875233;29;45658;-58
2022/12/26 18:14:24;;;;;;;0.30;0.30;;;18.00;51.10;;;;;;4867153;29;44871;-54
2022/12/26 18:16:50;;;;;;;0.22;0.22;;;18.00;51.10;;;;;;4875297;29;44861;-58
2022/12/26 18:19:17;;;;;;;0.30;0.30;;;17.90;51.10;;;;;;4857351;29;45337;-55
2022/12/26 18:21:43;;;;;;;0.47;0.30;;;17.90;51.20;;;;;;4870844;29;44873;-55
2022/12/26 18:24:08;;;;;;;0.47;0.25;;;17.90;51.10;;;;;;4874557;29;45206;-53
2022/12/26 18:26:34;;;;;;;0.30;0.30;;;17.90;51.10;;;;;;4874608;29;44847;-54
2022/12/26 18:28:59;;;;;;;0.30;0.30;;;17.90;51.10;;;;;;4871277;29;46362;-58
2022/12/26 18:31:26;;;;;;;0.22;0.22;;;17.80;51.10;;;;;;4839752;29;45110;-58
2022/12/26 18:33:52;;;;;;;0.30;0.20;;;17.80;51.20;;;;;;4870235;29;44708;-54
2022/12/26 18:36:18;;;;;;;0.40;0.30;;;17.80;51.20;;;;;;4873605;29;45342;-53
2022/12/26 18:38:43;;;;;;;0.20;0.20;;;17.80;51.20;;;;;;4876568;29;46404;-58
2022/12/26 18:41:16;;;;;;;0.10;0.10;;;17.80;51.20;;;;;;4857098;29;45472;-52